KRWL/RWL METAR and TAF weather

Enter ICAO airport designator
Station Type Date Time Source
KRWL METAR 2022/11/27 09:07 UTC NOAA

KRWL 270907Z AUTO 30003KT 2SM BR OVC007 M04/M06 A2997 RMK AO2 CIG 004V009 T10441056


Station Type Date Time Source
KRWL Decoded METAR 2022/11/27 09:07 UTC NOAA

RAWLINS MUNICIPAL AIRPORT, WY, United States (KRWL) 41-48N 107-12W
Nov 27, 2022 - 04:07 AM EST / 2022.11.27 0907 UTC
Wind: from the WNW (300 degrees) at 3 MPH (3 KT):0
Visibility: 2 mile(s):0
Sky conditions: overcast
Weather: mist
Temperature: 24.1 F (-4.4 C)
Dew Point: 21.9 F (-5.6 C)
Relative Humidity: 91%
Pressure (altimeter): 29.97 in. Hg (1014 hPa)
ob: KRWL 270907Z AUTO 30003KT 2SM BR OVC007 M04/M06 A2997 RMK AO2 CIG 004V009 T10441056
cycle: 9

Station Type Date Time Source
KRWL TAF 2022/11/27 06:27 UTC NOAA

TAF KRWL 270524Z 2706/2806 31007KT 1 1/2SM -SHSN OVC017
FM271000 27012KT 4SM BR OVC009
FM271200 25015G25KT P6SM BKN009
FM271400 24020G30KT P6SM BKN020
FM271600 24025G35KT P6SM SCT035
FM271800 24028G40KT P6SM SCT100

Example: see airport list